sensor_id;sensor_type;location;lat;lon;timestamp;temperature;humidity
70593;DHT22;58294;42.988;20.338;2023-07-02T00:01:45;436.00;2355.20
70593;DHT22;58294;42.988;20.338;2023-07-02T00:04:12;436.00;2355.20
70593;DHT22;58294;42.988;20.338;2023-07-02T00:06:44;436.00;2355.20
70593;DHT22;58294;42.988;20.338;2023-07-02T00:09:10;436.00;2355.20
70593;DHT22;58294;42.988;20.338;2023-07-02T00:11:40;436.00;2355.20
70593;DHT22;58294;42.988;20.338;2023-07-02T00:14:08;436.00;2355.20
70593;DHT22;58294;42.988;20.338;2023-07-02T00:16:37;436.00;2355.20
70593;DHT22;58294;42.988;20.338;2023-07-02T00:19:03;436.00;2355.20
70593;DHT22;58294;42.988;20.338;2023-07-02T00:21:29;436.00;2355.20
70593;DHT22;58294;42.988;20.338;2023-07-02T00:24:00;436.00;2355.20
70593;DHT22;58294;42.988;20.338;2023-07-02T00:26:26;436.00;2355.20
70593;DHT22;58294;42.988;20.338;2023-07-02T00:28:56;436.00;2355.20
70593;DHT22;58294;42.988;20.338;2023-07-02T00:31:22;436.00;2355.20
70593;DHT22;58294;42.988;20.338;2023-07-02T00:33:49;436.00;2355.20
70593;DHT22;58294;42.988;20.338;2023-07-02T00:36:15;436.00;2355.20
70593;DHT22;58294;42.988;20.338;2023-07-02T00:38:41;436.00;2355.20
70593;DHT22;58294;42.988;20.338;2023-07-02T00:41:11;436.00;2355.20
70593;DHT22;58294;42.988;20.338;2023-07-02T00:43:37;436.00;2355.20
70593;DHT22;58294;42.988;20.338;2023-07-02T00:46:19;435.90;2355.20
70593;DHT22;58294;42.988;20.338;2023-07-02T00:48:54;435.90;2355.20
70593;DHT22;58294;42.988;20.338;2023-07-02T00:51:25;435.90;2355.20
70593;DHT22;58294;42.988;20.338;2023-07-02T00:53:53;435.80;2355.20
70593;DHT22;58294;42.988;20.338;2023-07-02T00:56:20;435.70;2355.20
70593;DHT22;58294;42.988;20.338;2023-07-02T00:58:49;435.70;2355.20
70593;DHT22;58294;42.988;20.338;2023-07-02T01:01:17;435.60;2355.20
70593;DHT22;58294;42.988;20.338;2023-07-02T01:03:51;435.60;2355.20
70593;DHT22;58294;42.988;20.338;2023-07-02T01:06:24;435.50;2355.20
70593;DHT22;58294;42.988;20.338;2023-07-02T01:09:04;435.50;2355.20
70593;DHT22;58294;42.988;20.338;2023-07-02T01:11:33;435.40;2355.20
70593;DHT22;58294;42.988;20.338;2023-07-02T01:14:13;435.40;2355.20
70593;DHT22;58294;42.988;20.338;2023-07-02T01:16:42;435.40;2355.20
70593;DHT22;58294;42.988;20.338;2023-07-02T01:19:16;435.50;2355.20
70593;DHT22;58294;42.988;20.338;2023-07-02T01:21:47;435.50;2355.20
70593;DHT22;58294;42.988;20.338;2023-07-02T01:24:15;435.50;2355.20
70593;DHT22;58294;42.988;20.338;2023-07-02T01:26:41;435.50;2355.20
70593;DHT22;58294;42.988;20.338;2023-07-02T01:29:17;435.60;2355.20
70593;DHT22;58294;42.988;20.338;2023-07-02T01:31:44;435.60;2355.20
70593;DHT22;58294;42.988;20.338;2023-07-02T01:34:10;435.60;2355.20
70593;DHT22;58294;42.988;20.338;2023-07-02T01:36:37;435.60;2355.20
70593;DHT22;58294;42.988;20.338;2023-07-02T01:39:03;435.60;2355.20
70593;DHT22;58294;42.988;20.338;2023-07-02T01:41:29;435.60;2355.20
70593;DHT22;58294;42.988;20.338;2023-07-02T01:43:55;435.60;2355.20
70593;DHT22;58294;42.988;20.338;2023-07-02T01:46:21;435.60;2355.20
70593;DHT22;58294;42.988;20.338;2023-07-02T01:48:47;435.50;2355.20
70593;DHT22;58294;42.988;20.338;2023-07-02T01:51:12;435.60;2355.20
70593;DHT22;58294;42.988;20.338;2023-07-02T01:53:39;435.60;2355.20
70593;DHT22;58294;42.988;20.338;2023-07-02T01:56:05;435.50;2355.20
70593;DHT22;58294;42.988;20.338;2023-07-02T01:58:31;435.50;2355.20
70593;DHT22;58294;42.988;20.338;2023-07-02T02:00:56;435.40;2355.20
70593;DHT22;58294;42.988;20.338;2023-07-02T02:03:22;435.40;2355.20
70593;DHT22;58294;42.988;20.338;2023-07-02T02:05:48;435.40;2355.20
70593;DHT22;58294;42.988;20.338;2023-07-02T02:08:14;435.40;2355.20
70593;DHT22;58294;42.988;20.338;2023-07-02T02:10:40;435.30;2355.20
70593;DHT22;58294;42.988;20.338;2023-07-02T02:13:06;435.30;2355.20
70593;DHT22;58294;42.988;20.338;2023-07-02T02:15:31;435.30;2355.20
70593;DHT22;58294;42.988;20.338;2023-07-02T02:17:57;435.20;2355.20
70593;DHT22;58294;42.988;20.338;2023-07-02T02:20:23;435.20;2355.20
70593;DHT22;58294;42.988;20.338;2023-07-02T02:22:49;435.20;2355.20
70593;DHT22;58294;42.988;20.338;2023-07-02T02:25:15;410.50;2355.20
70593;DHT22;58294;42.988;20.338;2023-07-02T02:27:41;410.50;2355.20
70593;DHT22;58294;42.988;20.338;2023-07-02T02:30:08;410.50;2355.20
70593;DHT22;58294;42.988;20.338;2023-07-02T02:32:34;410.50;2355.20
70593;DHT22;58294;42.988;20.338;2023-07-02T02:35:00;410.50;2355.20
70593;DHT22;58294;42.988;20.338;2023-07-02T02:37:26;410.50;2355.20
70593;DHT22;58294;42.988;20.338;2023-07-02T02:39:52;435.20;2355.20
70593;DHT22;58294;42.988;20.338;2023-07-02T02:42:17;435.20;2355.20
70593;DHT22;58294;42.988;20.338;2023-07-02T02:44:43;435.20;2355.20
70593;DHT22;58294;42.988;20.338;2023-07-02T02:47:09;435.30;2355.20
70593;DHT22;58294;42.988;20.338;2023-07-02T02:49:37;435.30;2355.20
70593;DHT22;58294;42.988;20.338;2023-07-02T02:52:04;435.30;2355.20
70593;DHT22;58294;42.988;20.338;2023-07-02T02:54:29;435.40;2355.20
70593;DHT22;58294;42.988;20.338;2023-07-02T02:56:55;435.40;2355.20
70593;DHT22;58294;42.988;20.338;2023-07-02T02:59:21;435.40;2355.20
70593;DHT22;58294;42.988;20.338;2023-07-02T03:01:47;435.40;2355.20
70593;DHT22;58294;42.988;20.338;2023-07-02T03:04:12;435.40;2355.20
70593;DHT22;58294;42.988;20.338;2023-07-02T03:06:39;435.40;2355.20
70593;DHT22;58294;42.988;20.338;2023-07-02T03:09:05;435.40;2355.20
70593;DHT22;58294;42.988;20.338;2023-07-02T03:11:31;435.40;2355.20
70593;DHT22;58294;42.988;20.338;2023-07-02T03:13:56;435.40;2355.20
70593;DHT22;58294;42.988;20.338;2023-07-02T03:16:22;435.30;2355.20
70593;DHT22;58294;42.988;20.338;2023-07-02T03:18:48;435.30;2355.20
70593;DHT22;58294;42.988;20.338;2023-07-02T03:21:14;435.30;2355.20
70593;DHT22;58294;42.988;20.338;2023-07-02T03:23:39;435.30;2355.20
70593;DHT22;58294;42.988;20.338;2023-07-02T03:26:05;435.30;2355.20
70593;DHT22;58294;42.988;20.338;2023-07-02T03:28:31;435.20;2355.20
70593;DHT22;58294;42.988;20.338;2023-07-02T03:30:59;435.20;2355.20
70593;DHT22;58294;42.988;20.338;2023-07-02T03:33:25;435.20;2355.20
70593;DHT22;58294;42.988;20.338;2023-07-02T03:35:50;435.20;2355.20
70593;DHT22;58294;42.988;20.338;2023-07-02T03:38:16;435.20;2355.20
70593;DHT22;58294;42.988;20.338;2023-07-02T03:40:42;435.20;2355.20
70593;DHT22;58294;42.988;20.338;2023-07-02T03:43:08;435.20;2355.20
70593;DHT22;58294;42.988;20.338;2023-07-02T03:45:34;435.20;2355.20
70593;DHT22;58294;42.988;20.338;2023-07-02T03:47:59;435.30;2355.20
70593;DHT22;58294;42.988;20.338;2023-07-02T03:50:25;435.30;2355.20
70593;DHT22;58294;42.988;20.338;2023-07-02T03:52:51;435.30;2355.20
70593;DHT22;58294;42.988;20.338;2023-07-02T03:55:17;435.30;2355.20
70593;DHT22;58294;42.988;20.338;2023-07-02T03:57:44;435.30;2355.20
70593;DHT22;58294;42.988;20.338;2023-07-02T04:00:10;435.30;2355.20
70593;DHT22;58294;42.988;20.338;2023-07-02T04:02:37;435.20;2355.20
70593;DHT22;58294;42.988;20.338;2023-07-02T04:05:03;435.20;2355.20
70593;DHT22;58294;42.988;20.338;2023-07-02T04:07:28;435.20;2355.20
70593;DHT22;58294;42.988;20.338;2023-07-02T04:09:55;435.20;2355.20
70593;DHT22;58294;42.988;20.338;2023-07-02T04:12:21;410.50;2355.20
70593;DHT22;58294;42.988;20.338;2023-07-02T04:14:47;410.50;2355.20
70593;DHT22;58294;42.988;20.338;2023-07-02T04:17:12;410.50;2355.20
70593;DHT22;58294;42.988;20.338;2023-07-02T04:19:38;410.50;2355.20
70593;DHT22;58294;42.988;20.338;2023-07-02T04:22:04;410.50;2355.20
70593;DHT22;58294;42.988;20.338;2023-07-02T04:24:30;410.50;2355.20
70593;DHT22;58294;42.988;20.338;2023-07-02T04:26:56;410.50;2355.20
70593;DHT22;58294;42.988;20.338;2023-07-02T04:29:21;410.50;2355.20
70593;DHT22;58294;42.988;20.338;2023-07-02T04:31:47;410.50;2355.20
70593;DHT22;58294;42.988;20.338;2023-07-02T04:34:13;435.20;2355.20
70593;DHT22;58294;42.988;20.338;2023-07-02T04:36:39;435.20;2355.20
70593;DHT22;58294;42.988;20.338;2023-07-02T04:39:04;435.30;2355.20
70593;DHT22;58294;42.988;20.338;2023-07-02T04:41:30;435.30;2355.20
70593;DHT22;58294;42.988;20.338;2023-07-02T04:43:56;435.40;2355.20
70593;DHT22;58294;42.988;20.338;2023-07-02T04:46:22;435.40;2355.20
70593;DHT22;58294;42.988;20.338;2023-07-02T04:48:48;435.40;2355.20
70593;DHT22;58294;42.988;20.338;2023-07-02T04:51:14;435.40;2355.20
70593;DHT22;58294;42.988;20.338;2023-07-02T04:53:40;435.40;2355.20
70593;DHT22;58294;42.988;20.338;2023-07-02T04:56:06;435.40;2355.20
70593;DHT22;58294;42.988;20.338;2023-07-02T04:58:31;435.40;2355.20
70593;DHT22;58294;42.988;20.338;2023-07-02T05:00:57;435.40;2355.20
70593;DHT22;58294;42.988;20.338;2023-07-02T05:03:23;435.40;2355.20
70593;DHT22;58294;42.988;20.338;2023-07-02T05:05:48;435.40;2355.20
70593;DHT22;58294;42.988;20.338;2023-07-02T05:08:14;435.40;2355.20
70593;DHT22;58294;42.988;20.338;2023-07-02T05:10:40;435.40;2355.20
70593;DHT22;58294;42.988;20.338;2023-07-02T05:13:06;435.30;2355.20
70593;DHT22;58294;42.988;20.338;2023-07-02T05:15:32;435.30;2355.20
70593;DHT22;58294;42.988;20.338;2023-07-02T05:17:57;435.30;2355.20
70593;DHT22;58294;42.988;20.338;2023-07-02T05:20:23;435.30;2355.20
70593;DHT22;58294;42.988;20.338;2023-07-02T05:22:49;435.40;2355.20
70593;DHT22;58294;42.988;20.338;2023-07-02T05:25:15;435.40;2355.20
70593;DHT22;58294;42.988;20.338;2023-07-02T05:27:40;435.40;2355.20
70593;DHT22;58294;42.988;20.338;2023-07-02T05:30:07;435.50;2355.20
70593;DHT22;58294;42.988;20.338;2023-07-02T05:32:34;435.60;2355.20
70593;DHT22;58294;42.988;20.338;2023-07-02T05:35:00;435.70;2355.20
70593;DHT22;58294;42.988;20.338;2023-07-02T05:37:26;435.70;2355.20
70593;DHT22;58294;42.988;20.338;2023-07-02T05:39:51;435.90;2355.20
70593;DHT22;58294;42.988;20.338;2023-07-02T05:42:18;436.00;2355.20
70593;DHT22;58294;42.988;20.338;2023-07-02T05:44:43;436.10;2355.20
70593;DHT22;58294;42.988;20.338;2023-07-02T05:47:10;436.10;2355.20
70593;DHT22;58294;42.988;20.338;2023-07-02T05:49:35;460.80;2380.80
70593;DHT22;58294;42.988;20.338;2023-07-02T05:52:01;460.80;2380.80
70593;DHT22;58294;42.988;20.338;2023-07-02T05:54:27;460.80;2380.80
70593;DHT22;58294;42.988;20.338;2023-07-02T06:01:45;461.00;2380.80
70593;DHT22;58294;42.988;20.338;2023-07-02T06:04:11;461.00;2380.80
70593;DHT22;58294;42.988;20.338;2023-07-02T06:06:36;461.10;2380.80
70593;DHT22;58294;42.988;20.338;2023-07-02T06:09:02;461.10;2380.80
70593;DHT22;58294;42.988;20.338;2023-07-02T06:13:55;461.30;2380.80
70593;DHT22;58294;42.988;20.338;2023-07-02T06:16:21;461.40;2380.80
70593;DHT22;58294;42.988;20.338;2023-07-02T06:18:47;461.50;2380.80
70593;DHT22;58294;42.988;20.338;2023-07-02T06:21:12;461.60;2380.80
70593;DHT22;58294;42.988;20.338;2023-07-02T06:26:10;486.50;2380.80
70593;DHT22;58294;42.988;20.338;2023-07-02T06:28:37;486.60;2380.80
70593;DHT22;58294;42.988;20.338;2023-07-02T06:31:03;486.70;2380.80
70593;DHT22;58294;42.988;20.338;2023-07-02T06:33:29;486.70;2380.80
70593;DHT22;58294;42.988;20.338;2023-07-02T06:35:55;486.80;2380.80
70593;DHT22;58294;42.988;20.338;2023-07-02T06:38:20;486.80;2380.80
70593;DHT22;58294;42.988;20.338;2023-07-02T06:40:46;486.80;2380.80
70593;DHT22;58294;42.988;20.338;2023-07-02T06:43:12;486.90;2380.80
70593;DHT22;58294;42.988;20.338;2023-07-02T06:45:38;487.00;2380.80
70593;DHT22;58294;42.988;20.338;2023-07-02T06:48:03;487.00;2380.80
70593;DHT22;58294;42.988;20.338;2023-07-02T06:50:29;487.20;2380.80
70593;DHT22;58294;42.988;20.338;2023-07-02T06:55:21;487.20;2380.80
70593;DHT22;58294;42.988;20.338;2023-07-02T07:00:15;512.20;2380.80
70593;DHT22;58294;42.988;20.338;2023-07-02T07:02:41;512.20;2380.80
70593;DHT22;58294;42.988;20.338;2023-07-02T07:05:07;512.40;2380.80
70593;DHT22;58294;42.988;20.338;2023-07-02T07:12:26;537.60;2406.40
70593;DHT22;58294;42.988;20.338;2023-07-02T07:14:52;512.70;2380.80
70593;DHT22;58294;42.988;20.338;2023-07-02T07:17:18;512.70;2380.80
70593;DHT22;58294;42.988;20.338;2023-07-02T07:19:44;512.70;2380.80
70593;DHT22;58294;42.988;20.338;2023-07-02T07:22:10;512.70;2380.80
70593;DHT22;58294;42.988;20.338;2023-07-02T07:24:35;512.70;2380.80
70593;DHT22;58294;42.988;20.338;2023-07-02T07:27:01;512.70;2380.80
70593;DHT22;58294;42.988;20.338;2023-07-02T07:29:27;512.70;2380.80
70593;DHT22;58294;42.988;20.338;2023-07-02T07:31:52;512.60;2380.80
70593;DHT22;58294;42.988;20.338;2023-07-02T07:36:44;512.80;2380.80
70593;DHT22;58294;42.988;20.338;2023-07-02T07:39:11;512.90;2380.80
70593;DHT22;58294;42.988;20.338;2023-07-02T07:41:37;537.60;2406.40
70593;DHT22;58294;42.988;20.338;2023-07-02T07:44:03;537.60;2406.40
70593;DHT22;58294;42.988;20.338;2023-07-02T07:46:29;537.90;2406.40
70593;DHT22;58294;42.988;20.338;2023-07-02T07:48:55;538.00;2406.40
70593;DHT22;58294;42.988;20.338;2023-07-02T07:51:21;538.10;2406.40
70593;DHT22;58294;42.988;20.338;2023-07-02T07:53:47;538.20;2406.40
70593;DHT22;58294;42.988;20.338;2023-07-02T07:56:13;538.30;2406.40
70593;DHT22;58294;42.988;20.338;2023-07-02T08:01:04;563.20;2432.00
70593;DHT22;58294;42.988;20.338;2023-07-02T08:03:30;563.40;2432.00
70593;DHT22;58294;42.988;20.338;2023-07-02T08:05:56;563.40;2432.00
70593;DHT22;58294;42.988;20.338;2023-07-02T08:08:22;563.50;2432.00
70593;DHT22;58294;42.988;20.338;2023-07-02T08:13:15;563.80;2432.00
70593;DHT22;58294;42.988;20.338;2023-07-02T08:15:43;564.10;2432.00
70593;DHT22;58294;42.988;20.338;2023-07-02T08:18:08;589.10;2432.00
70593;DHT22;58294;42.988;20.338;2023-07-02T08:20:37;589.60;2432.00
70593;DHT22;58294;42.988;20.338;2023-07-02T08:23:02;589.60;2432.00
70593;DHT22;58294;42.988;20.338;2023-07-02T08:25:28;589.40;2432.00
70593;DHT22;58294;42.988;20.338;2023-07-02T08:27:54;589.30;2432.00
70593;DHT22;58294;42.988;20.338;2023-07-02T08:30:20;589.10;2432.00
70593;DHT22;58294;42.988;20.338;2023-07-02T08:32:46;589.00;2432.00
70593;DHT22;58294;42.988;20.338;2023-07-02T08:35:12;589.00;2432.00
70593;DHT22;58294;42.988;20.338;2023-07-02T08:37:38;588.80;2432.00
70593;DHT22;58294;42.988;20.338;2023-07-02T08:40:04;563.90;2432.00
70593;DHT22;58294;42.988;20.338;2023-07-02T08:42:32;563.90;2432.00
70593;DHT22;58294;42.988;20.338;2023-07-02T08:44:59;563.80;2432.00
70593;DHT22;58294;42.988;20.338;2023-07-02T08:47:26;563.90;2432.00
70593;DHT22;58294;42.988;20.338;2023-07-02T08:49:54;563.90;2432.00
70593;DHT22;58294;42.988;20.338;2023-07-02T08:52:20;563.90;2432.00
70593;DHT22;58294;42.988;20.338;2023-07-02T08:54:46;563.90;2432.00
70593;DHT22;58294;42.988;20.338;2023-07-02T08:57:13;563.80;2432.00
70593;DHT22;58294;42.988;20.338;2023-07-02T08:59:39;563.80;2432.00
70593;DHT22;58294;42.988;20.338;2023-07-02T09:02:05;563.80;2432.00
70593;DHT22;58294;42.988;20.338;2023-07-02T09:04:31;563.90;2432.00
70593;DHT22;58294;42.988;20.338;2023-07-02T09:07:08;564.10;2432.00
70593;DHT22;58294;42.988;20.338;2023-07-02T09:09:49;588.80;2432.00
70593;DHT22;58294;42.988;20.338;2023-07-02T09:12:24;564.10;2432.00
70593;DHT22;58294;42.988;20.338;2023-07-02T09:15:00;589.00;2432.00
70593;DHT22;58294;42.988;20.338;2023-07-02T09:19:56;589.60;2432.00
70593;DHT22;58294;42.988;20.338;2023-07-02T09:22:22;614.40;2432.00
70593;DHT22;58294;42.988;20.338;2023-07-02T09:24:56;614.40;2432.00
70593;DHT22;58294;42.988;20.338;2023-07-02T09:27:39;614.40;2432.00
70593;DHT22;58294;42.988;20.338;2023-07-02T09:30:13;614.50;2432.00
70593;DHT22;58294;42.988;20.338;2023-07-02T09:35:06;614.90;2432.00
70593;DHT22;58294;42.988;20.338;2023-07-02T09:37:32;614.80;2432.00
70593;DHT22;58294;42.988;20.338;2023-07-02T09:40:00;614.80;2432.00
70593;DHT22;58294;42.988;20.338;2023-07-02T09:42:28;614.80;2432.00
70593;DHT22;58294;42.988;20.338;2023-07-02T09:44:58;614.70;2432.00
70593;DHT22;58294;42.988;20.338;2023-07-02T09:47:25;614.80;2432.00
70593;DHT22;58294;42.988;20.338;2023-07-02T09:54:53;640.00;2432.00
70593;DHT22;58294;42.988;20.338;2023-07-02T10:14:44;640.30;2432.00
70593;DHT22;58294;42.988;20.338;2023-07-02T10:17:10;640.10;2432.00
70593;DHT22;58294;42.988;20.338;2023-07-02T10:19:36;640.10;2432.00
70593;DHT22;58294;42.988;20.338;2023-07-02T10:22:03;640.10;2432.00
70593;DHT22;58294;42.988;20.338;2023-07-02T10:24:30;640.00;2432.00
70593;DHT22;58294;42.988;20.338;2023-07-02T10:27:01;640.10;2432.00
70593;DHT22;58294;42.988;20.338;2023-07-02T10:29:28;640.50;2432.00
70593;DHT22;58294;42.988;20.338;2023-07-02T10:34:34;665.80;2432.00
70593;DHT22;58294;42.988;20.338;2023-07-02T10:37:01;666.10;2432.00
70593;DHT22;58294;42.988;20.338;2023-07-02T10:39:28;666.50;2432.00
70593;DHT22;58294;42.988;20.338;2023-07-02T10:46:57;768.10;2176.00
70593;DHT22;58294;42.988;20.338;2023-07-02T10:49:33;794.40;2432.00
70593;DHT22;58294;42.988;20.338;2023-07-02T10:59:26;820.10;2227.20
70593;DHT22;58294;42.988;20.338;2023-07-02T11:01:51;793.70;2432.00
70593;DHT22;58294;42.988;20.338;2023-07-02T11:04:17;768.40;2432.00
70593;DHT22;58294;42.988;20.338;2023-07-02T11:06:43;768.10;2432.00
70593;DHT22;58294;42.988;20.338;2023-07-02T11:14:31;793.60;2432.00
70593;DHT22;58294;42.988;20.338;2023-07-02T11:16:58;717.70;2432.00
70593;DHT22;58294;42.988;20.338;2023-07-02T11:19:25;742.40;2432.00
70593;DHT22;58294;42.988;20.338;2023-07-02T11:24:30;717.70;2432.00
70593;DHT22;58294;42.988;20.338;2023-07-02T11:26:57;742.60;2432.00
70593;DHT22;58294;42.988;20.338;2023-07-02T11:29:23;742.60;2432.00
70593;DHT22;58294;42.988;20.338;2023-07-02T11:31:49;742.40;1894.40
70593;DHT22;58294;42.988;20.338;2023-07-02T11:39:08;743.20;2432.00
70593;DHT22;58294;42.988;20.338;2023-07-02T11:41:39;743.20;2432.00
70593;DHT22;58294;42.988;20.338;2023-07-02T11:44:06;768.00;2432.00
70593;DHT22;58294;42.988;20.338;2023-07-02T11:46:32;768.00;2432.00
70593;DHT22;58294;42.988;20.338;2023-07-02T11:49:00;768.00;2432.00
70593;DHT22;58294;42.988;20.338;2023-07-02T11:51:26;743.10;2432.00
70593;DHT22;58294;42.988;20.338;2023-07-02T11:53:52;743.00;2432.00
70593;DHT22;58294;42.988;20.338;2023-07-02T11:56:18;743.00;2432.00
70593;DHT22;58294;42.988;20.338;2023-07-02T11:58:47;743.00;2432.00
70593;DHT22;58294;42.988;20.338;2023-07-02T12:06:05;794.20;2432.00
70593;DHT22;58294;42.988;20.338;2023-07-02T12:08:30;768.50;2432.00
70593;DHT22;58294;42.988;20.338;2023-07-02T12:10:56;768.00;2432.00
70593;DHT22;58294;42.988;20.338;2023-07-02T12:13:22;743.00;2432.00
70593;DHT22;58294;42.988;20.338;2023-07-02T12:15:48;742.70;2432.00
70593;DHT22;58294;42.988;20.338;2023-07-02T12:18:15;717.50;2432.00
70593;DHT22;58294;42.988;20.338;2023-07-02T12:20:41;742.90;2432.00
70593;DHT22;58294;42.988;20.338;2023-07-02T12:23:07;742.60;2432.00
70593;DHT22;58294;42.988;20.338;2023-07-02T12:25:33;717.60;2432.00
70593;DHT22;58294;42.988;20.338;2023-07-02T12:27:59;717.50;2432.00
70593;DHT22;58294;42.988;20.338;2023-07-02T12:30:25;717.30;2432.00
70593;DHT22;58294;42.988;20.338;2023-07-02T12:32:50;717.20;2432.00
70593;DHT22;58294;42.988;20.338;2023-07-02T12:35:16;717.00;2432.00
70593;DHT22;58294;42.988;20.338;2023-07-02T12:37:49;716.80;2432.00
70593;DHT22;58294;42.988;20.338;2023-07-02T12:40:16;692.00;2432.00
70593;DHT22;58294;42.988;20.338;2023-07-02T12:42:43;691.80;2432.00
70593;DHT22;58294;42.988;20.338;2023-07-02T12:45:13;691.70;2432.00
70593;DHT22;58294;42.988;20.338;2023-07-02T12:47:40;691.40;2432.00
70593;DHT22;58294;42.988;20.338;2023-07-02T12:50:07;691.30;2432.00
70593;DHT22;58294;42.988;20.338;2023-07-02T12:52:33;691.20;2432.00
70593;DHT22;58294;42.988;20.338;2023-07-02T12:55:00;666.50;2432.00
70593;DHT22;58294;42.988;20.338;2023-07-02T12:57:26;666.10;2432.00
70593;DHT22;58294;42.988;20.338;2023-07-02T12:59:53;665.90;2432.00
70593;DHT22;58294;42.988;20.338;2023-07-02T13:04:45;666.00;2432.00
70593;DHT22;58294;42.988;20.338;2023-07-02T13:16:57;717.60;2432.00
70593;DHT22;58294;42.988;20.338;2023-07-02T13:19:24;717.50;2432.00
70593;DHT22;58294;42.988;20.338;2023-07-02T13:21:50;717.20;2432.00
70593;DHT22;58294;42.988;20.338;2023-07-02T13:24:16;717.00;2432.00
70593;DHT22;58294;42.988;20.338;2023-07-02T13:26:42;692.00;2432.00
70593;DHT22;58294;42.988;20.338;2023-07-02T13:29:07;691.70;2432.00
70593;DHT22;58294;42.988;20.338;2023-07-02T13:31:33;691.50;2432.00
70593;DHT22;58294;42.988;20.338;2023-07-02T13:33:59;691.50;2432.00
70593;DHT22;58294;42.988;20.338;2023-07-02T13:36:25;691.70;2432.00
70593;DHT22;58294;42.988;20.338;2023-07-02T13:38:54;691.80;2432.00
70593;DHT22;58294;42.988;20.338;2023-07-02T13:41:19;692.00;2432.00
70593;DHT22;58294;42.988;20.338;2023-07-02T13:43:45;692.00;2432.00
70593;DHT22;58294;42.988;20.338;2023-07-02T13:46:11;692.00;2432.00
70593;DHT22;58294;42.988;20.338;2023-07-02T13:48:37;692.00;2432.00
70593;DHT22;58294;42.988;20.338;2023-07-02T13:51:03;692.00;2432.00
70593;DHT22;58294;42.988;20.338;2023-07-02T13:53:28;691.90;2432.00
70593;DHT22;58294;42.988;20.338;2023-07-02T13:55:54;691.70;1664.00
70593;DHT22;58294;42.988;20.338;2023-07-02T13:58:20;666.50;1612.80
70593;DHT22;58294;42.988;20.338;2023-07-02T14:00:46;666.20;2278.40
70593;DHT22;58294;42.988;20.338;2023-07-02T14:03:12;666.10;2432.00
70593;DHT22;58294;42.988;20.338;2023-07-02T14:05:37;666.00;2432.00
70593;DHT22;58294;42.988;20.338;2023-07-02T14:08:04;665.70;2432.00
70593;DHT22;58294;42.988;20.338;2023-07-02T14:10:30;640.90;2432.00
70593;DHT22;58294;42.988;20.338;2023-07-02T14:12:56;640.80;2432.00
70593;DHT22;58294;42.988;20.338;2023-07-02T14:15:22;640.70;2432.00
70593;DHT22;58294;42.988;20.338;2023-07-02T14:17:48;640.60;2432.00
70593;DHT22;58294;42.988;20.338;2023-07-02T14:20:14;640.60;2432.00
70593;DHT22;58294;42.988;20.338;2023-07-02T14:22:41;640.30;2432.00
70593;DHT22;58294;42.988;20.338;2023-07-02T14:25:08;640.20;2432.00
70593;DHT22;58294;42.988;20.338;2023-07-02T14:27:34;640.10;2432.00
70593;DHT22;58294;42.988;20.338;2023-07-02T14:30:00;615.30;2432.00
70593;DHT22;58294;42.988;20.338;2023-07-02T14:32:28;615.00;2278.40
70593;DHT22;58294;42.988;20.338;2023-07-02T14:34:54;615.00;2432.00
70593;DHT22;58294;42.988;20.338;2023-07-02T14:37:20;614.90;2432.00
70593;DHT22;58294;42.988;20.338;2023-07-02T14:39:46;614.90;2432.00
70593;DHT22;58294;42.988;20.338;2023-07-02T14:42:12;614.80;2432.00
70593;DHT22;58294;42.988;20.338;2023-07-02T15:01:44;614.90;2432.00
70593;DHT22;58294;42.988;20.338;2023-07-02T15:04:10;614.80;2432.00
70593;DHT22;58294;42.988;20.338;2023-07-02T15:09:02;614.50;2432.00
70593;DHT22;58294;42.988;20.338;2023-07-02T15:11:28;614.40;2432.00
70593;DHT22;58294;42.988;20.338;2023-07-02T15:13:54;614.40;2432.00
70593;DHT22;58294;42.988;20.338;2023-07-02T15:16:20;614.40;2432.00
70593;DHT22;58294;42.988;20.338;2023-07-02T15:18:47;614.50;2432.00
70593;DHT22;58294;42.988;20.338;2023-07-02T15:21:13;614.60;2432.00
70593;DHT22;58294;42.988;20.338;2023-07-02T15:23:39;614.60;2432.00
70593;DHT22;58294;42.988;20.338;2023-07-02T15:26:05;614.60;2432.00
70593;DHT22;58294;42.988;20.338;2023-07-02T15:28:32;614.60;2432.00
70593;DHT22;58294;42.988;20.338;2023-07-02T15:31:03;614.60;2432.00
70593;DHT22;58294;42.988;20.338;2023-07-02T15:33:29;614.50;2432.00
70593;DHT22;58294;42.988;20.338;2023-07-02T15:35:58;614.50;2432.00
70593;DHT22;58294;42.988;20.338;2023-07-02T15:38:24;614.40;2432.00
70593;DHT22;58294;42.988;20.338;2023-07-02T15:40:52;614.50;2432.00
70593;DHT22;58294;42.988;20.338;2023-07-02T15:43:18;614.50;2432.00
70593;DHT22;58294;42.988;20.338;2023-07-02T15:45:44;614.60;2432.00
70593;DHT22;58294;42.988;20.338;2023-07-02T15:48:10;614.70;2432.00
70593;DHT22;58294;42.988;20.338;2023-07-02T15:50:35;614.60;2432.00
70593;DHT22;58294;42.988;20.338;2023-07-02T15:53:01;614.60;2432.00
70593;DHT22;58294;42.988;20.338;2023-07-02T15:55:28;614.60;2432.00
70593;DHT22;58294;42.988;20.338;2023-07-02T15:57:54;614.60;2432.00
70593;DHT22;58294;42.988;20.338;2023-07-02T16:00:21;614.70;2432.00
70593;DHT22;58294;42.988;20.338;2023-07-02T16:02:47;614.60;2432.00
70593;DHT22;58294;42.988;20.338;2023-07-02T16:05:13;614.60;2432.00
70593;DHT22;58294;42.988;20.338;2023-07-02T16:07:39;614.70;2432.00
70593;DHT22;58294;42.988;20.338;2023-07-02T16:10:07;614.70;2432.00
70593;DHT22;58294;42.988;20.338;2023-07-02T16:12:33;614.70;2432.00
70593;DHT22;58294;42.988;20.338;2023-07-02T16:15:00;614.50;2432.00
70593;DHT22;58294;42.988;20.338;2023-07-02T16:17:26;614.50;2432.00
70593;DHT22;58294;42.988;20.338;2023-07-02T16:19:52;614.50;2432.00
70593;DHT22;58294;42.988;20.338;2023-07-02T16:22:18;614.50;2432.00
70593;DHT22;58294;42.988;20.338;2023-07-02T16:24:43;614.40;2432.00
70593;DHT22;58294;42.988;20.338;2023-07-02T16:27:10;614.40;2432.00
70593;DHT22;58294;42.988;20.338;2023-07-02T16:29:36;614.40;2432.00
70593;DHT22;58294;42.988;20.338;2023-07-02T16:32:03;614.40;2432.00